Time;durP1;ratioP1;P1;durP2;ratioP2;P2;SDS_P1;SDS_P2;PMS_P1;PMS_P2;Temp;Humidity;BMP_temperature;BMP_pressure;BME280_temperature;BME280_humidity;BME280_pressure;Samples;Min_cycle;Max_cycle;Signal;HPM_P1;HPM_P2
2022/09/05 00:02:23;;;;;;;3.38;2.55;;;;;;;23.83;48.06;101021.91;20668358;28;20045;-77
2022/09/05 00:12:26;;;;;;;2.95;2.60;;;;;;;23.83;48.16;101025.38;20672306;28;20042;-78
2022/09/05 00:23:06;;;;;;;3.00;2.50;;;;;;;23.79;48.05;101028.38;20656801;28;20071;-79
2022/09/05 00:33:46;;;;;;;2.90;2.60;;;;;;;23.80;48.30;101020.34;20654276;28;20038;-78
2022/09/05 00:43:49;;;;;;;3.67;2.60;;;;;;;23.80;48.16;101022.13;20641948;28;20054;-75
2022/09/05 00:54:14;;;;;;;2.50;2.30;;;;;;;23.80;48.26;101030.06;20656339;28;20053;-78
2022/09/05 01:04:28;;;;;;;3.38;2.45;;;;;;;23.78;48.17;101034.66;20687261;28;20065;-78
2022/09/05 01:14:47;;;;;;;2.60;2.40;;;;;;;23.79;48.26;101023.06;20691439;28;20060;-79
2022/09/05 01:24:53;;;;;;;2.75;2.55;;;;;;;23.77;48.24;101017.91;20681735;28;20823;-74
2022/09/05 01:35:19;;;;;;;2.70;2.50;;;;;;;23.75;48.05;101017.19;20689398;28;20116;-78
2022/09/05 01:45:41;;;;;;;2.85;2.53;;;;;;;23.76;48.16;101013.59;20686597;28;21905;-78
2022/09/05 01:55:41;;;;;;;2.88;2.50;;;;;;;23.76;48.35;101020.69;20678849;28;20476;-78
2022/09/05 02:05:53;;;;;;;3.17;2.50;;;;;;;23.74;48.10;101023.47;20692167;28;20042;-77
2022/09/05 02:16:18;;;;;;;4.43;2.75;;;;;;;23.73;48.12;101020.91;20674267;28;20053;-78
2022/09/05 02:26:45;;;;;;;2.80;2.50;;;;;;;23.71;48.21;101014.94;20677058;28;20049;-78
2022/09/05 02:36:54;;;;;;;2.88;2.20;;;;;;;23.73;47.88;101020.91;20671430;28;20080;-78
2022/09/05 02:47:15;;;;;;;2.47;2.28;;;;;;;23.70;48.07;101018.53;20676901;28;21398;-79
2022/09/05 02:57:43;;;;;;;4.07;2.57;;;;;;;23.69;48.06;101030.06;20667939;28;20119;-79
2022/09/05 03:08:21;;;;;;;3.65;2.25;;;;;;;23.67;48.27;101033.66;20680971;28;20045;-78
2022/09/05 03:18:51;;;;;;;2.70;2.40;;;;;;;23.66;48.08;101034.63;20682537;28;20049;-78
2022/09/05 03:29:13;;;;;;;3.30;2.22;;;;;;;23.66;47.89;101037.25;20666904;28;20065;-78
2022/09/05 03:39:38;;;;;;;2.80;2.15;;;;;;;23.67;48.20;101048.69;20669808;28;20046;-78
2022/09/05 03:49:44;;;;;;;2.53;2.30;;;;;;;23.65;48.28;101056.72;20671403;28;20060;-78
2022/09/05 03:59:48;;;;;;;2.80;2.60;;;;;;;23.64;48.15;101065.66;20669854;28;20042;-78
2022/09/05 04:10:14;;;;;;;4.78;2.30;;;;;;;23.63;48.05;101076.31;20658235;28;20042;-78
2022/09/05 04:20:38;;;;;;;3.47;2.10;;;;;;;23.62;48.13;101075.50;20672830;28;20345;-77
2022/09/05 04:30:50;;;;;;;5.20;2.33;;;;;;;23.64;48.43;101099.16;20673607;28;20050;-77
2022/09/05 04:41:08;;;;;;;4.93;2.35;;;;;;;23.66;48.78;101102.53;20663432;28;20046;-76
2022/09/05 04:51:39;;;;;;;6.50;2.70;;;;;;;23.64;48.93;101100.00;20670793;28;20521;-76
2022/09/05 05:01:49;;;;;;;18.67;3.03;;;;;;;23.67;49.24;101122.72;20660767;28;20495;-75
2022/09/05 05:11:55;;;;;;;19.55;3.35;;;;;;;23.69;49.71;101127.91;20647768;28;20070;-79
2022/09/05 05:21:59;;;;;;;10.43;3.38;;;;;;;23.63;49.02;101131.84;20667732;28;20045;-75
2022/09/05 05:32:03;;;;;;;10.90;3.70;;;;;;;23.62;49.10;101136.28;20637536;28;20045;-76
2022/09/05 05:42:14;;;;;;;9.75;3.50;;;;;;;23.55;48.08;101134.25;20651188;28;20050;-76
2022/09/05 05:52:33;;;;;;;7.07;3.30;;;;;;;23.60;48.33;101142.66;20656336;28;20049;-75
2022/09/05 06:03:00;;;;;;;8.00;3.40;;;;;;;23.55;48.08;101140.38;20658747;28;20447;-76
2022/09/05 06:13:30;;;;;;;5.75;2.90;;;;;;;23.55;47.89;101143.00;20674213;28;20053;-76
2022/09/05 06:23:50;;;;;;;4.38;2.92;;;;;;;23.57;47.86;101135.81;20683264;28;20050;-76
2022/09/05 06:34:13;;;;;;;5.13;2.88;;;;;;;23.60;47.90;101140.03;20674580;28;20046;-76
2022/09/05 06:44:33;;;;;;;4.78;3.00;;;;;;;23.62;47.83;101144.22;20687594;28;20064;-76
2022/09/05 06:55:15;;;;;;;4.05;3.00;;;;;;;23.65;47.86;101146.63;20681333;28;20046;-76
2022/09/05 07:05:19;;;;;;;3.20;2.80;;;;;;;23.70;48.00;101148.09;20667283;28;20050;-76
2022/09/05 07:15:37;;;;;;;2.50;2.30;;;;;;;23.70;47.85;101153.38;20689551;28;20040;-76
2022/09/05 07:25:42;;;;;;;4.95;2.58;;;;;;;23.75;48.26;101154.69;20684579;28;20061;-76
2022/09/05 07:35:43;;;;;;;4.10;2.90;;;;;;;23.78;48.10;101162.41;20681710;28;20862;-76
2022/09/05 07:45:54;;;;;;;3.45;2.55;;;;;;;23.80;48.05;101152.56;20674735;28;20064;-76
2022/09/05 07:55:57;;;;;;;4.70;2.70;;;;;;;23.83;48.04;101154.13;20672932;28;20041;-75
2022/09/05 08:06:04;;;;;;;2.83;2.55;;;;;;;23.86;48.10;101151.22;20669151;28;20073;-74
2022/09/05 08:16:08;;;;;;;3.00;2.50;;;;;;;23.87;48.04;101150.28;20681788;28;20069;-75
2022/09/05 08:26:18;;;;;;;4.20;2.80;;;;;;;23.88;48.01;101138.75;20686911;28;20048;-74
2022/09/05 08:36:45;;;;;;;5.63;2.63;;;;;;;23.89;47.97;101142.22;20684834;28;20088;-74
2022/09/05 08:46:59;;;;;;;4.10;2.42;;;;;;;23.94;47.94;101145.41;20666941;28;20117;-74
2022/09/05 08:57:11;;;;;;;2.90;2.35;;;;;;;23.96;47.92;101146.09;20668575;28;20077;-75
2022/09/05 09:07:33;;;;;;;3.88;2.53;;;;;;;23.97;47.85;101134.56;20673310;28;20060;-76
2022/09/05 09:17:45;;;;;;;6.03;2.60;;;;;;;24.04;48.00;101119.06;20685086;28;20081;-76
2022/09/05 09:28:19;;;;;;;8.32;2.67;;;;;;;24.06;47.74;101112.69;20689475;28;20092;-77
2022/09/05 09:38:29;;;;;;;9.00;2.85;;;;;;;24.13;47.65;101110.41;20674258;28;20046;-76
2022/09/05 09:48:56;;;;;;;8.82;3.03;;;;;;;24.12;47.37;101108.69;20686264;28;20045;-74
2022/09/05 09:59:33;;;;;;;6.00;3.10;;;;;;;24.14;47.25;101106.78;20692694;28;20622;-75
2022/09/05 10:10:02;;;;;;;8.50;3.03;;;;;;;24.16;47.02;101096.94;20693608;28;20076;-75
2022/09/05 10:20:38;;;;;;;4.78;2.60;;;;;;;24.21;46.99;101094.75;20689126;28;20053;-75
2022/09/05 10:30:43;;;;;;;7.63;3.13;;;;;;;24.29;46.93;101075.63;20679725;28;20648;-75
2022/09/05 10:40:49;;;;;;;5.60;3.10;;;;;;;24.36;45.53;101079.47;20681230;28;20045;-75
2022/09/05 10:50:59;;;;;;;5.40;2.90;;;;;;;24.43;46.00;101066.59;20684936;28;20041;-77
2022/09/05 11:01:09;;;;;;;3.58;2.85;;;;;;;24.50;44.69;101057.19;20681558;28;20054;-74
2022/09/05 11:11:24;;;;;;;3.00;2.72;;;;;;;24.55;43.87;101044.41;20692611;28;20417;-74
2022/09/05 11:21:38;;;;;;;6.07;2.80;;;;;;;24.61;42.68;101040.44;20696317;28;20045;-76
2022/09/05 11:31:51;;;;;;;4.97;2.53;;;;;;;24.59;42.86;101032.59;20689956;28;20049;-74
2022/09/05 11:42:03;;;;;;;4.47;2.80;;;;;;;24.68;42.56;101031.03;20669445;28;20053;-74
2022/09/05 11:52:22;;;;;;;6.78;3.00;;;;;;;24.69;42.30;101024.75;20688746;28;20214;-74
2022/09/05 12:02:39;;;;;;;2.65;2.45;;;;;;;24.72;41.95;101015.75;20691015;28;20054;-75
2022/09/05 12:12:46;;;;;;;3.97;2.70;;;;;;;24.76;41.56;101014.50;20696184;28;20124;-75
2022/09/05 12:23:01;;;;;;;6.00;2.78;;;;;;;24.84;41.45;101001.47;20675719;28;20056;-73
2022/09/05 12:33:21;;;;;;;4.43;2.80;;;;;;;24.88;40.38;100996.75;20681359;28;20034;-75
2022/09/05 12:43:25;;;;;;;10.40;3.00;;;;;;;24.90;41.37;100992.16;20653820;28;20583;-73
2022/09/05 12:53:39;;;;;;;4.82;2.50;;;;;;;24.86;41.60;100980.97;20693291;28;20273;-74
2022/09/05 13:04:21;;;;;;;5.40;2.67;;;;;;;24.83;42.28;100977.75;20678545;28;20137;-74
2022/09/05 13:14:30;;;;;;;6.85;3.38;;;;;;;24.93;41.74;100952.19;20685134;28;20049;-74
2022/09/05 13:24:40;;;;;;;4.95;3.33;;;;;;;25.05;41.08;100955.59;20670142;28;20416;-74
2022/09/05 13:34:45;;;;;;;5.07;4.00;;;;;;;25.11;41.28;100947.13;20673744;28;20109;-73
2022/09/05 13:44:50;;;;;;;5.15;3.47;;;;;;;25.17;41.09;100938.66;20661393;28;20042;-73
2022/09/05 13:55:01;;;;;;;4.78;3.40;;;;;;;25.23;40.47;100938.13;20689826;28;20034;-73
2022/09/05 14:05:12;;;;;;;5.18;3.28;;;;;;;25.25;40.65;100919.41;20655997;28;20062;-72
2022/09/05 14:15:15;;;;;;;4.68;2.97;;;;;;;25.27;40.53;100909.53;20686970;28;20400;-73
2022/09/05 14:25:26;;;;;;;4.90;3.10;;;;;;;25.29;40.84;100902.25;20674684;28;20042;-73
2022/09/05 14:35:48;;;;;;;4.25;2.90;;;;;;;25.29;41.29;100902.25;20675416;28;20046;-74
2022/09/05 14:45:59;;;;;;;7.38;3.22;;;;;;;25.32;41.59;100893.25;20650172;28;20046;-74
2022/09/05 14:56:04;;;;;;;6.18;3.25;;;;;;;25.38;41.83;100893.56;20685105;28;20529;-73
2022/09/05 15:06:14;;;;;;;4.95;2.78;;;;;;;25.36;41.78;100884.03;20690170;28;20046;-72
2022/09/05 15:16:16;;;;;;;5.45;2.47;;;;;;;25.41;41.96;100876.53;20667075;28;20132;-72
2022/09/05 15:26:19;;;;;;;2.55;2.35;;;;;;;25.39;41.34;100884.63;20671759;28;20144;-72
2022/09/05 15:36:40;;;;;;;2.80;2.53;;;;;;;25.32;41.09;100875.50;20679350;28;20496;-73
2022/09/05 15:46:50;;;;;;;3.63;2.83;;;;;;;25.35;41.05;100867.31;20682123;28;20076;-73
2022/09/05 15:56:52;;;;;;;4.68;2.53;;;;;;;25.31;41.54;100870.34;20650777;28;20102;-75
2022/09/05 16:06:56;;;;;;;4.20;2.45;;;;;;;25.27;41.61;100861.81;20671065;28;20057;-75
2022/09/05 16:17:12;;;;;;;8.55;2.70;;;;;;;25.26;41.75;100857.50;20667955;28;20386;-73
2022/09/05 16:27:18;;;;;;;5.40;3.03;;;;;;;25.22;42.13;100851.63;20668127;28;20041;-73
2022/09/05 16:37:40;;;;;;;5.50;2.67;;;;;;;25.18;42.41;100839.63;20675263;28;20060;-73
2022/09/05 16:47:50;;;;;;;5.80;2.90;;;;;;;25.16;42.33;100838.91;20661738;28;20049;-72
2022/09/05 16:58:00;;;;;;;5.38;2.92;;;;;;;25.10;42.23;100834.97;20661786;28;20144;-72
2022/09/05 17:08:19;;;;;;;3.20;2.65;;;;;;;25.06;42.26;100838.03;20665634;28;20622;-72
2022/09/05 17:18:22;;;;;;;7.50;3.92;;;;;;;25.05;43.26;100841.66;20653376;28;20042;-72
2022/09/05 17:28:51;;;;;;;6.18;3.53;;;;;;;25.02;43.60;100849.88;20656630;28;20069;-72
2022/09/05 17:38:58;;;;;;;7.25;3.88;;;;;;;25.03;43.77;100848.91;20635866;28;20042;-72
2022/09/05 17:49:04;;;;;;;10.95;4.80;;;;;;;25.03;45.64;100856.84;20642083;28;20043;-74
2022/09/05 17:59:20;;;;;;;10.75;5.32;;;;;;;25.08;46.82;100862.59;20669392;28;20117;-73
2022/09/05 18:09:35;;;;;;;9.05;3.90;;;;;;;24.99;44.81;100880.13;20656746;28;20057;-73
2022/09/05 18:19:45;;;;;;;9.70;4.15;;;;;;;24.93;43.67;100886.78;20666167;28;20172;-73
2022/09/05 18:30:12;;;;;;;8.85;4.03;;;;;;;24.92;44.46;100892.22;20685102;28;20053;-72
2022/09/05 18:40:34;;;;;;;6.43;3.80;;;;;;;24.94;45.98;100887.63;20633552;28;20089;-70
2022/09/05 18:50:40;;;;;;;7.25;3.80;;;;;;;24.98;46.06;100902.28;20661387;28;20037;-73
2022/09/05 19:00:43;;;;;;;8.95;3.55;;;;;;;24.97;46.62;100903.25;20693047;28;20042;-76
2022/09/05 19:10:51;;;;;;;5.38;3.20;;;;;;;24.96;46.37;100901.56;20690755;28;20069;-75
2022/09/05 19:20:54;;;;;;;4.47;3.30;;;;;;;24.96;46.59;100895.44;20689613;28;20129;-72
2022/09/05 19:31:05;;;;;;;5.75;3.95;;;;;;;24.93;46.81;100884.13;20688638;28;20038;-74
2022/09/05 19:41:06;;;;;;;5.07;3.30;;;;;;;24.91;46.55;100891.38;20714612;28;20677;-74
2022/09/05 19:51:13;;;;;;;4.40;2.80;;;;;;;24.91;46.71;100887.88;20704282;28;20034;-74
2022/09/05 20:01:15;;;;;;;6.00;3.60;;;;;;;24.90;46.58;100892.34;20701433;28;20046;-74
2022/09/05 20:11:25;;;;;;;5.78;3.55;;;;;;;24.88;46.61;100888.16;20707331;28;20141;-74
2022/09/05 20:21:32;;;;;;;5.70;3.20;;;;;;;24.87;46.81;100897.91;20712255;28;20046;-75
2022/09/05 20:31:35;;;;;;;3.78;2.90;;;;;;;24.85;46.87;100896.34;20695991;28;20582;-75
2022/09/05 20:41:37;;;;;;;7.43;3.30;;;;;;;24.82;47.14;100886.03;20701561;28;20061;-74
2022/09/05 20:51:44;;;;;;;4.85;2.80;;;;;;;24.83;46.62;100882.38;20701345;28;20053;-75
2022/09/05 21:01:57;;;;;;;5.50;3.08;;;;;;;24.83;46.74;100879.75;20706902;28;20100;-74
2022/09/05 21:12:07;;;;;;;4.57;3.08;;;;;;;24.84;46.63;100884.06;20726457;28;20145;-74
2022/09/05 21:22:16;;;;;;;7.53;3.00;;;;;;;24.84;47.03;100887.56;20731681;28;20408;-75
2022/09/05 21:32:19;;;;;;;4.07;3.05;;;;;;;24.84;46.81;100895.53;20729749;28;20048;-75
2022/09/05 21:42:19;;;;;;;5.93;2.83;;;;;;;24.84;47.06;100887.56;20712810;28;20050;-74
2022/09/05 21:52:20;;;;;;;6.13;3.08;;;;;;;24.86;47.28;100892.75;20706205;28;20038;-74
2022/09/05 22:02:20;;;;;;;4.53;2.40;;;;;;;24.90;47.78;100888.84;20700464;28;20046;-72
2022/09/05 22:12:32;;;;;;;3.05;2.53;;;;;;;24.90;48.69;100891.50;20703987;28;20050;-73
2022/09/05 22:22:33;;;;;;;;;;;;;;;24.83;48.09;100895.63;20705644;28;20053;-73
2022/09/05 22:32:34;;;;;;;2.87;2.50;;;;;;;24.85;47.95;100889.25;20689002;28;20009;-73
2022/09/05 22:42:34;;;;;;;3.27;2.47;;;;;;;24.84;47.62;100878.78;20690306;28;20162;-73
2022/09/05 22:52:35;;;;;;;2.63;2.25;;;;;;;24.82;47.78;100867.50;20694818;28;20041;-73
2022/09/05 23:02:35;;;;;;;3.33;2.35;;;;;;;24.82;47.83;100863.03;20685472;28;20084;-73
2022/09/05 23:12:36;;;;;;;2.85;2.30;;;;;;;24.80;47.93;100858.84;20694570;28;20037;-73
2022/09/05 23:22:38;;;;;;;3.17;2.20;;;;;;;24.79;47.94;100855.31;20691569;28;20520;-73
2022/09/05 23:32:46;;;;;;;2.70;2.40;;;;;;;24.78;48.07;100853.69;20687649;28;20408;-74
2022/09/05 23:42:54;;;;;;;2.88;2.28;;;;;;;24.78;48.15;100848.38;20686667;28;20118;-74
2022/09/05 23:53:02;;;;;;;2.30;2.10;;;;;;;24.75;48.01;100845.97;20687721;28;20065;-74
